Smith Valley, Nevada Weather observations

Data are for 10 minute period ending at time listed.
 Day   Time   Solar   Ave.   Ave.  Ave.  Vector  Max.   Baro.   Total    
  of    of     Rad.   Air    Rel.  Wind   Wind   Wind  Press.  Precip.   
Year   Day            Temp.  Hum.  Speed  Dir.   Gust                    
2020   (PST)  Kw/m2    F      %     mph   deg.    mph    mb.     in.     
-------------------------------------------------------------------------
 268    0:00   -0.00   59.7    27    3.4   139     5.8   855.7    0.00 
 268    0:10   -0.00   60.5    26    3.6   135     5.9   855.6    0.00 
 268    0:20   -0.00   60.1    30    4.9   101     9.1   855.6    0.00 
 268    0:30   -0.00   64.9    21    2.9   346     6.2   855.5    0.00 
 268    0:40   -0.00   62.2    29    4.3   102     6.8   855.4    0.00 
 268    0:50   -0.01   61.1    28    2.4    85     7.8   855.5    0.00 
 268    1:00   -0.00   62.7    21    5.8    54     9.6   855.5    0.00 
 268    1:10   -0.00   64.5    21    4.0    95     7.4   855.6    0.00 
 268    1:20   -0.00   65.9    20    3.6    86     7.3   855.6    0.00 
 268    1:30   -0.01   64.0    23    2.6    38     5.9   855.6    0.00 
 268    1:40   -0.01   63.5    24    2.8   134     6.4   855.6    0.00 
 268    1:50   -0.01   59.5    30    3.9    80     6.7   855.6    0.00 
 268    2:00   -0.00   56.2    33    4.7    69     6.0   855.6    0.00 
 268    2:10   -0.00   55.7    35    3.5    81     6.4   855.6    0.00 
 268    2:20   -0.00   54.5    35    1.9    52     3.6   855.6    0.00 
 268    2:30   -0.00   56.6    29    3.3   123     7.5   855.5    0.00 
 268    2:40   -0.00   57.2    28    3.9   178     8.7   855.6    0.00 
 268    2:50   -0.00   57.6    26    1.7   205     5.9   855.5    0.00 
 268    3:00   -0.00   59.5    25    1.1   114     2.9   855.5    0.00 
 268    3:10   -0.00   58.3    26    2.0   160     6.4   855.5    0.00 
 268    3:20   -0.00   56.4    29    3.3   183     6.9   855.4    0.00 
 268    3:30   -0.00   59.4    26    5.1   138     7.4   855.3    0.00 
 268    3:40   -0.00   60.4    26    6.0   136     7.2   855.3    0.00 
 268    3:50   -0.01   59.5    27    2.5   122     6.2   855.4    0.00 
 268    4:00   -0.00   59.1    26    1.7   124     2.9   855.3    0.00 
 268    4:10   -0.00   59.0    26    4.0   154     6.5   855.4    0.00 
 268    4:20   -0.00   59.5    25    6.8   153     8.6   855.4    0.00 
 268    4:30   -0.00   59.2    25    6.2   152     8.9   855.4    0.00 
 268    4:40   -0.00   59.0    25    5.3   156     9.9   855.3    0.00 
 268    4:50   -0.00   59.2    24    7.6   158    10.2   855.3    0.00 
 268    5:00   -0.00   59.0    24    6.2   165     8.8   855.5    0.00 
 268    5:10   -0.00   59.9    23    5.6   190     9.2   855.5    0.00 
 268    5:20   -0.01   58.2    26    4.4   203     9.9   855.6    0.00 
 268    5:30   -0.01   53.7    36    1.9   109     4.4   855.7    0.00 
 268    5:40   -0.00   52.9    36    1.9   130     4.0   855.7    0.00 
 268    5:50   0.00   51.7    35    2.0   225     5.5   855.8    0.00 
 268    6:00   0.01   50.9    35    5.9   201     8.0   855.8    0.00 
 268    6:10   0.05   56.0    29    5.3   208     8.5   855.8    0.00 
 268    6:20   0.09   54.8    31    3.0    54     6.2   855.9    0.00 
 268    6:30   0.12   56.4    28    3.0    48     4.9   856.0    0.00 
 268    6:40   0.15   56.8    31    4.4   105     7.3   856.0    0.00 
 268    6:50   0.18   57.2    34    5.5   120     7.3   855.9    0.00 
 268    7:00   0.21   59.2    30    5.0   102     6.9   855.9    0.00 
 268    7:10   0.24   61.0    28    4.4    87     7.2   855.8    0.00 
 268    7:20   0.27   62.3    27    6.0    88     8.8   855.8    0.00 
 268    7:30   0.30   63.3    26    5.7    94     8.7   855.8    0.00 
 268    7:40   0.34   64.8    26    4.4   101     6.6   855.8    0.00 
 268    7:50   0.37   66.8    24    4.0    98     6.6   855.7    0.00 
 268    8:00   0.40   68.3    23    5.7    80     8.0   855.8    0.00 
 268    8:10   0.43   70.2    22    4.2    95    10.1   855.8    0.00 
 268    8:20   0.47   71.5    22    5.6    88    11.5   855.8    0.00 
 268    8:30   0.50   73.0    22    5.7    97     8.8   855.8    0.00 
 268    8:40   0.53   73.6    20    6.5   120     9.6   855.6    0.00 
 268    8:50   0.56   75.5    17    3.8   109     9.3   855.6    0.00 
 268    9:00   0.59   78.1    13    7.2   189    11.2   855.7    0.00 
 268    9:10   0.62   78.6    14    6.8   206    12.2   855.7    0.00 
 268    9:20   0.64   77.3    14    9.3   330    14.8   855.8    0.00 
 268    9:30   0.66   77.2    13    8.5   353    12.4   855.8    0.00 
 268    9:40   0.69   78.2    13    5.2   356     9.2   855.8    0.00 
 268    9:50   0.71   78.8    13    3.6     2     8.5   855.7    0.00 
 268   10:00   0.72   80.2    11    2.5   100     5.6   855.7    0.00 
 268   10:10   0.73   80.5    12    2.8    99     5.8   855.6    0.00 
 268   10:20   0.75   80.9    12    2.7    91     7.2   855.5    0.00 
 268   10:30   0.78   81.3    12    3.6    68     8.4   855.4    0.00 
 268   10:40   0.80   81.5    11    2.2    63     5.5   855.3    0.00 
 268   10:50   0.81   82.1    12    4.0   106     8.6   855.2    0.00 
 268   11:00   0.82   81.9    13    4.6   133    13.3   855.0    0.00 
 268   11:10   0.83   82.5    12    2.3    33     6.5   854.9    0.00 
 268   11:20   0.83   83.8    14    2.8   240    10.6   854.8    0.00 
 268   11:30   0.83   82.9    15    7.9   272    17.0   854.6    0.00 
 268   11:40   0.84   82.8    18    7.3   255    15.6   854.6    0.00 
 268   11:50   0.84   82.5    17   10.8   258    17.4   854.5    0.00 
 268   12:00   0.84   83.1    17   10.0   256    16.6   854.4    0.00 
 268   12:10   0.84   82.7    18   10.2   239    17.9   854.4    0.00 
 268   12:20   0.85   83.7    17    9.6   239    15.6   854.3    0.00 
 268   12:30   0.79   83.9    16    6.3   269    13.2   854.3    0.00 
 268   12:40   0.80   83.4    16    9.0   265    24.6   854.1    0.00 
 268   12:50   0.81   83.6    17   10.1   268    16.8   853.9    0.00 
 268   13:00   0.80   83.9    16   10.3   269    15.7   853.7    0.00 
 268   13:10   0.79   84.1    16   10.1   268    15.6   853.6    0.00 
 268   13:20   0.77   84.0    16   10.4   261    19.2   853.6    0.00 
 268   13:30   0.76   83.6    15   13.0   239    19.0   853.5    0.00 
 268   13:40   0.73   83.9    15   13.4   264    19.3   853.5    0.00 
 268   13:50   0.71   84.1    15   11.8   267    18.2   853.4    0.00 
 268   14:00   0.69   84.1    15   12.8   267    19.8   853.4    0.00 
 268   14:10   0.67   83.6    16    9.5   278    20.3   853.4    0.00 
 268   14:20   0.65   83.2    16   10.7   263    18.8   853.3    0.00 
 268   14:30   0.62   83.7    16   12.5   262    20.6   853.2    0.00 
 268   14:40   0.60   82.8    17   13.3   247    20.2   853.1    0.00 
 268   14:50   0.57   82.8    16   11.0   266    20.0   853.1    0.00 
 268   15:00   0.44   82.5    17   10.1   268    19.4   853.1    0.00 
 268   15:10   0.48   82.0    17   12.9   281    21.4   853.1    0.00 
 268   15:20   0.46   81.8    17   11.2   284    16.7   853.0    0.00 
 268   15:30   0.44   81.7    17   10.9   280    17.1   852.8    0.00 
 268   15:40   0.41   81.5    17    9.8   262    14.8   852.8    0.00 
 268   15:50   0.39   81.7    15   11.1   266    16.9   852.8    0.00 
 268   16:00   0.36   81.3    15   10.3   249    16.9   852.6    0.00 
 268   16:10   0.32   80.6    15   10.2   252    18.4   852.5    0.00 
 268   16:20   0.30   80.6    13    9.4   269    15.8   852.5    0.00 
 268   16:30   0.27   80.4    14    7.8   262    13.6   852.5    0.00 
 268   16:40   0.23   79.4    15    8.0   268    13.1   852.6    0.00 
 268   16:50   0.21   78.6    16    7.3   265    12.3   852.8    0.00 
 268   17:00   0.17   77.6    16    8.3   249    12.4   852.7    0.00 
 268   17:10   0.15   75.9    17    7.9   244    11.0   852.7    0.00 
 268   17:20   0.05   74.7    17    7.5   247    11.7   852.6    0.00 
 268   17:30   0.02   74.0    15    8.5   271    13.3   852.7    0.00 
 268   17:40   0.01   72.9    18    6.1   278    10.0   852.7    0.00 
 268   17:50   0.00   71.6    19    6.8   270     9.1   852.7    0.00 
 268   18:00   -0.00   69.9    20    6.1   268     7.7   852.7    0.00 
 268   18:10   -0.00   69.8    21    6.7   258     9.4   852.7    0.00 
 268   18:20   -0.00   71.4    20    7.3   260    12.8   852.8    0.00 
 268   18:30   -0.01   70.6    22    6.8   249     9.0   852.8    0.00 
 268   18:40   -0.01   70.0    23    7.1   251    11.8   852.8    0.00 
 268   18:50   -0.00   70.5    23    9.7   262    14.5   852.7    0.00 
 268   19:00   -0.00   70.4    22   10.0   260    13.6   852.8    0.00 
 268   19:10   -0.00   70.4    21    8.8   263    13.0   852.8    0.00 
 268   19:20   -0.01   69.4    21    6.6   268     9.0   852.8    0.00 
 268   19:30   -0.01   68.6    21    4.6   256     7.1   852.9    0.00 
 268   19:40   -0.01   67.7    23    5.7    45    11.3   853.0    0.00 
 268   19:50   -0.01   66.2    26    2.8    49     4.2   853.0    0.00 
 268   20:00   -0.00   65.5    27    3.5    66     5.8   853.0    0.00 
 268   20:10   -0.01   63.8    32    2.7    70     3.3   853.0    0.00 
 268   20:20   -0.00   62.9    32    2.2    87     4.0   853.0    0.00 
 268   20:30   -0.00   62.3    33    3.4    77     4.4   853.1    0.00 
 268   20:40   -0.00   61.3    35    3.0    98     5.8   853.1    0.00 
 268   20:50   -0.00   59.6    34    2.7   218     7.6   853.2    0.00 
 268   21:00   -0.00   58.9    37    4.6   219     7.8   853.4    0.00 
 268   21:10   -0.00   57.5    39    4.2   190     8.2   853.4    0.00 
 268   21:20   -0.00   56.8    40    3.3   182     7.9   853.4    0.00 
 268   21:30   -0.00   56.4    41    1.5   157     4.2   853.4    0.00 
 268   21:40   0.00   60.5    31    3.2   195     4.8   853.3    0.00 
 268   21:50   -0.00   62.7    30    2.6   199     5.3   853.3    0.00 
 268   22:00   -0.00   59.1    35    3.9   182     6.9   853.4    0.00 
 268   22:10   -0.00   58.0    37    4.1   223     6.6   853.5    0.00 
 268   22:20   -0.00   55.8    39    3.2   180     5.3   853.4    0.00 
 268   22:30   -0.00   55.3    42    2.4    37     3.9   853.5    0.00 
 268   22:40   -0.00   53.7    46    1.2   122     3.1   853.5    0.00 

Return to Smith Valley graphs page.


Western Regional Climate Center,wrcc@dri.edu